Time;durP1;ratioP1;P1;durP2;ratioP2;P2;SDS_P1;SDS_P2;PMS_P1;PMS_P2;Temp;Humidity;BMP_temperature;BMP_pressure;BME280_temperature;BME280_humidity;BME280_pressure;Samples;Min_cycle;Max_cycle;Signal;HPM_P1;HPM_P2
2023/03/20 00:01:11;;;;;;;10.20;4.00;;;7.20;99.90;;;;;;6250343;22;20016;-79
2023/03/20 00:03:37;;;;;;;9.57;3.70;;;7.20;99.90;;;;;;6277218;22;20055;-79
2023/03/20 00:06:02;;;;;;;9.38;3.90;;;7.20;99.90;;;;;;6250115;22;20022;-78
2023/03/20 00:08:28;;;;;;;13.10;4.53;;;7.20;99.90;;;;;;6250162;22;20058;-79
2023/03/20 00:10:54;;;;;;;11.18;5.30;;;7.20;99.90;;;;;;6277548;22;20011;-78
2023/03/20 00:13:25;;;;;;;14.32;6.25;;;7.20;99.90;;;;;;6277613;22;20458;-79
2023/03/20 00:15:50;;;;;;;11.50;5.03;;;7.20;99.90;;;;;;6250104;22;20023;-79
2023/03/20 00:18:21;;;;;;;14.80;5.05;;;7.20;99.90;;;;;;6249869;22;20024;-79
2023/03/20 00:20:49;;;;;;;11.43;6.00;;;7.20;99.90;;;;;;6277504;22;20023;-79
2023/03/20 00:23:15;;;;;;;13.25;5.20;;;7.20;99.90;;;;;;6249872;22;20012;-78
2023/03/20 00:25:42;;;;;;;17.05;5.35;;;7.10;99.90;;;;;;6249636;22;20065;-79
2023/03/20 00:28:42;;;;;;;11.00;4.47;;;7.10;99.90;;;;;;6250015;22;20019;-79
2023/03/20 00:31:14;;;;;;;13.73;5.30;;;7.10;99.90;;;;;;6169403;22;20030;-79
2023/03/20 00:33:40;;;;;;;12.88;5.47;;;7.00;99.90;;;;;;6250093;22;20077;-79
2023/03/20 00:36:08;;;;;;;16.08;5.90;;;7.00;99.90;;;;;;6249953;22;20020;-79
2023/03/20 00:38:33;;;;;;;11.98;5.20;;;7.10;99.90;;;;;;6249933;22;20045;-79
2023/03/20 00:40:59;;;;;;;13.55;6.10;;;7.00;99.90;;;;;;6277005;22;20411;-79
2023/03/20 00:43:25;;;;;;;13.35;6.00;;;7.10;99.90;;;;;;6249682;22;20012;-79
2023/03/20 00:45:51;;;;;;;15.88;6.47;;;7.10;99.90;;;;;;6249606;22;20054;-79
2023/03/20 00:48:16;;;;;;;12.65;6.18;;;7.10;99.90;;;;;;6276866;22;20020;-79
2023/03/20 00:50:42;;;;;;;19.27;6.78;;;7.10;99.90;;;;;;6249813;22;20034;-79
2023/03/20 00:53:10;;;;;;;12.48;5.70;;;7.10;99.90;;;;;;6249799;22;20489;-79
2023/03/20 00:55:37;;;;;;;15.30;6.07;;;7.10;99.90;;;;;;6276945;22;20024;-79
2023/03/20 00:58:03;;;;;;;13.85;5.28;;;7.10;99.90;;;;;;6249836;22;20014;-79
2023/03/20 01:00:37;;;;;;;12.55;5.75;;;7.10;99.90;;;;;;6249499;22;20102;-79
2023/03/20 01:03:11;;;;;;;17.58;6.80;;;7.10;99.90;;;;;;6276828;22;20051;-79
2023/03/20 01:05:37;;;;;;;13.50;5.55;;;7.00;99.90;;;;;;6249974;22;20030;-79
2023/03/20 01:08:12;;;;;;;16.20;5.32;;;7.10;99.90;;;;;;6249807;22;20339;-79
2023/03/20 01:10:39;;;;;;;12.57;5.30;;;7.00;99.90;;;;;;6249791;22;20037;-79
2023/03/20 01:13:09;;;;;;;17.48;5.85;;;7.00;99.90;;;;;;6249772;22;20407;-79
2023/03/20 01:15:36;;;;;;;11.70;5.13;;;7.00;99.90;;;;;;6249634;22;20444;-79
2023/03/20 01:18:01;;;;;;;17.10;5.05;;;7.00;99.90;;;;;;6249740;22;20339;-79
2023/03/20 01:20:28;;;;;;;14.60;5.30;;;7.00;99.90;;;;;;6249746;22;20023;-79
2023/03/20 01:22:54;;;;;;;14.82;5.35;;;7.00;99.90;;;;;;6249753;22;20043;-79
2023/03/20 01:25:20;;;;;;;12.93;4.65;;;6.90;99.90;;;;;;6277002;22;20427;-79
2023/03/20 01:27:50;;;;;;;18.10;4.85;;;6.90;99.90;;;;;;6249469;22;20019;-79
2023/03/20 01:30:25;;;;;;;14.38;5.80;;;6.90;99.90;;;;;;6249642;22;20019;-79
2023/03/20 01:32:51;;;;;;;17.63;6.50;;;7.00;99.90;;;;;;6249589;22;20053;-79
2023/03/20 01:35:21;;;;;;;19.42;6.63;;;7.00;99.90;;;;;;6249398;22;20024;-79
2023/03/20 01:37:48;;;;;;;20.30;6.07;;;7.00;99.90;;;;;;6249608;22;20111;-79
2023/03/20 01:40:36;;;;;;;14.70;5.72;;;6.90;99.90;;;;;;6249556;22;20404;-79
2023/03/20 01:43:13;;;;;;;14.52;5.60;;;7.00;99.90;;;;;;6249403;22;20055;-79
2023/03/20 01:46:02;;;;;;;17.33;5.82;;;6.90;99.90;;;;;;6249661;22;20024;-79
2023/03/20 01:48:54;;;;;;;16.38;5.38;;;7.00;99.90;;;;;;6248613;22;20055;-79
2023/03/20 01:51:26;;;;;;;22.35;6.63;;;6.90;99.90;;;;;;6249572;22;20020;-79
2023/03/20 01:53:58;;;;;;;33.38;7.00;;;6.90;99.90;;;;;;6278296;22;20137;-79
2023/03/20 01:56:25;;;;;;;14.52;5.93;;;6.90;99.90;;;;;;6278697;22;20047;-79
2023/03/20 01:59:15;;;;;;;12.32;5.45;;;7.00;99.90;;;;;;6251576;22;20069;-79
2023/03/20 02:01:42;;;;;;;17.08;5.93;;;6.90;99.90;;;;;;6251423;22;20011;-79
2023/03/20 02:04:08;;;;;;;19.77;6.00;;;6.90;99.90;;;;;;6278227;22;20019;-78
2023/03/20 02:06:36;;;;;;;22.83;6.07;;;7.00;99.90;;;;;;6251211;22;20087;-79
2023/03/20 02:09:03;;;;;;;24.15;6.88;;;7.00;99.90;;;;;;6251254;22;20020;-78
2023/03/20 02:11:29;;;;;;;17.38;7.28;;;7.00;99.90;;;;;;6278616;22;20106;-79
2023/03/20 02:13:58;;;;;;;24.38;7.03;;;6.90;99.90;;;;;;6250928;22;20046;-79
2023/03/20 02:16:24;;;;;;;22.00;6.88;;;6.90;99.90;;;;;;6251208;22;20149;-79
2023/03/20 02:18:52;;;;;;;14.88;6.63;;;7.00;99.90;;;;;;6251215;22;20394;-79
2023/03/20 02:22:05;;;;;;;16.48;6.50;;;6.90;99.90;;;;;;6251190;22;20077;-79
2023/03/20 02:25:01;;;;;;;17.58;6.32;;;7.00;99.90;;;;;;6251070;22;20089;-79
2023/03/20 02:27:36;;;;;;;21.48;7.72;;;7.10;99.90;;;;;;6277963;22;20341;-79
2023/03/20 02:30:34;;;;;;;20.90;7.18;;;7.00;99.90;;;;;;6278576;22;20004;-79
2023/03/20 02:33:21;;;;;;;24.02;7.05;;;7.00;99.90;;;;;;6250943;22;20137;-79
2023/03/20 02:36:21;;;;;;;18.70;6.75;;;7.00;99.90;;;;;;6278450;22;20023;-79
2023/03/20 02:39:24;;;;;;;24.83;7.32;;;7.00;99.90;;;;;;6251006;22;20319;-79
2023/03/20 02:41:57;;;;;;;21.30;7.95;;;7.00;99.90;;;;;;6250692;22;20343;-79
2023/03/20 02:44:35;;;;;;;23.05;6.43;;;7.10;99.90;;;;;;6278281;22;20073;-79
2023/03/20 02:47:14;;;;;;;21.35;6.93;;;7.10;99.90;;;;;;6278153;22;20031;-79
2023/03/20 02:50:07;;;;;;;23.75;6.40;;;7.10;99.90;;;;;;6278196;22;20062;-79
2023/03/20 02:52:45;;;;;;;26.00;8.15;;;7.10;99.90;;;;;;6277929;22;20435;-79
2023/03/20 02:55:28;;;;;;;23.30;7.78;;;7.20;99.90;;;;;;6278325;22;20015;-79
2023/03/20 02:57:59;;;;;;;19.08;7.05;;;7.10;99.90;;;;;;6250880;22;20027;-79
2023/03/20 03:00:39;;;;;;;20.45;7.22;;;7.20;99.90;;;;;;6278246;22;20049;-79
2023/03/20 03:03:13;;;;;;;22.98;7.88;;;7.20;99.90;;;;;;6278184;22;20026;-79
2023/03/20 03:05:52;;;;;;;23.50;8.35;;;7.20;99.90;;;;;;6277716;22;20016;-79
2023/03/20 03:08:21;;;;;;;25.40;8.45;;;7.10;99.90;;;;;;6278144;22;20022;-79
2023/03/20 03:11:10;;;;;;;26.73;7.90;;;7.20;99.90;;;;;;6250742;22;20443;-78
2023/03/20 03:13:56;;;;;;;24.98;7.93;;;7.20;99.90;;;;;;6276899;22;20054;-79
2023/03/20 03:16:29;;;;;;;23.05;8.32;;;7.30;99.90;;;;;;6278032;22;20016;-79
2023/03/20 03:19:07;;;;;;;26.02;8.02;;;7.20;99.90;;;;;;6278066;22;20015;-79
2023/03/20 03:21:35;;;;;;;21.65;7.57;;;7.30;99.90;;;;;;6277739;22;20513;-79
2023/03/20 03:24:02;;;;;;;24.63;8.45;;;7.30;99.90;;;;;;6277805;22;20011;-79
2023/03/20 03:26:33;;;;;;;22.77;8.68;;;7.20;99.90;;;;;;6277577;22;20083;-79
2023/03/20 03:29:02;;;;;;;28.20;7.95;;;7.30;99.90;;;;;;6277619;22;20336;-79
2023/03/20 03:31:29;;;;;;;23.77;8.63;;;7.20;99.90;;;;;;6277577;22;20049;-79
2023/03/20 03:33:57;;;;;;;29.50;8.75;;;7.30;99.90;;;;;;6277522;22;20024;-79
2023/03/20 03:36:58;;;;;;;24.98;8.55;;;7.30;99.90;;;;;;6250471;22;20038;-79
2023/03/20 03:39:40;;;;;;;25.85;9.20;;;7.30;99.90;;;;;;6250149;22;20467;-79
2023/03/20 03:42:21;;;;;;;23.08;8.00;;;7.30;99.90;;;;;;6250172;22;20023;-79
2023/03/20 03:45:02;;;;;;;28.65;8.60;;;7.30;99.90;;;;;;6250241;22;20094;-79
2023/03/20 03:47:42;;;;;;;24.67;7.85;;;7.30;99.90;;;;;;6250332;22;20356;-79
2023/03/20 03:50:22;;;;;;;23.95;9.02;;;7.30;99.90;;;;;;6277918;22;20089;-79
2023/03/20 03:52:52;;;;;;;29.58;8.63;;;7.30;99.90;;;;;;6277787;22;20062;-79
2023/03/20 03:55:25;;;;;;;24.20;7.88;;;7.30;99.90;;;;;;6250078;22;20027;-79
2023/03/20 03:58:11;;;;;;;31.70;8.85;;;7.30;99.90;;;;;;6250320;22;20022;-78
2023/03/20 04:00:41;;;;;;;29.25;10.95;;;7.30;99.90;;;;;;6250271;22;20180;-79
2023/03/20 04:03:08;;;;;;;25.27;9.63;;;7.30;99.90;;;;;;6277574;22;20101;-79
2023/03/20 04:05:37;;;;;;;23.98;9.00;;;7.30;99.90;;;;;;6250231;22;20011;-79
2023/03/20 04:08:05;;;;;;;26.98;8.50;;;7.30;99.90;;;;;;6250162;22;20015;-79
2023/03/20 04:10:30;;;;;;;20.02;8.32;;;7.30;99.90;;;;;;6277550;22;20023;-79
2023/03/20 04:12:56;;;;;;;23.85;8.02;;;7.40;99.90;;;;;;6277452;22;20012;-79
2023/03/20 04:15:22;;;;;;;21.13;7.90;;;7.30;99.90;;;;;;6277415;22;20011;-79
2023/03/20 04:17:47;;;;;;;24.25;9.00;;;7.30;99.90;;;;;;6250156;22;20320;-79
2023/03/20 04:20:13;;;;;;;26.67;8.27;;;7.30;99.90;;;;;;6277048;22;20019;-79
2023/03/20 04:22:39;;;;;;;24.98;9.77;;;7.30;99.90;;;;;;6277494;22;20343;-79
2023/03/20 04:25:07;;;;;;;28.95;9.80;;;7.30;99.90;;;;;;6249852;22;20019;-79
2023/03/20 04:27:33;;;;;;;24.25;8.80;;;7.30;99.90;;;;;;6250032;22;20015;-79
2023/03/20 04:29:59;;;;;;;25.33;9.48;;;7.30;99.90;;;;;;6277002;22;20047;-79
2023/03/20 04:32:25;;;;;;;23.73;9.93;;;7.30;99.90;;;;;;6249980;22;20016;-79
2023/03/20 04:34:51;;;;;;;18.95;8.32;;;7.30;99.90;;;;;;6277369;22;20016;-79
2023/03/20 04:37:17;;;;;;;26.63;9.48;;;7.30;99.90;;;;;;6277372;22;20455;-79
2023/03/20 04:39:43;;;;;;;26.05;10.43;;;7.40;99.90;;;;;;6249832;22;20103;-79
2023/03/20 04:42:10;;;;;;;25.40;9.38;;;7.30;99.90;;;;;;6277066;22;20412;-79
2023/03/20 04:44:37;;;;;;;22.42;8.80;;;7.40;99.90;;;;;;6250259;22;20474;-79
2023/03/20 04:47:03;;;;;;;22.80;9.82;;;7.30;99.90;;;;;;6249883;22;20423;-79
2023/03/20 04:49:29;;;;;;;27.92;9.80;;;7.30;99.90;;;;;;6249690;22;20016;-79
2023/03/20 04:51:55;;;;;;;24.55;10.93;;;7.30;99.90;;;;;;6276914;22;20020;-79
2023/03/20 04:54:21;;;;;;;29.38;10.43;;;7.30;99.90;;;;;;6276969;22;20098;-79
2023/03/20 04:56:46;;;;;;;25.83;11.27;;;7.40;99.90;;;;;;6249874;22;20447;-79
2023/03/20 04:59:12;;;;;;;27.25;10.75;;;7.40;99.90;;;;;;6277234;22;20443;-79
2023/03/20 05:01:38;;;;;;;27.33;10.60;;;7.40;99.90;;;;;;6277220;22;20012;-79
2023/03/20 05:04:04;;;;;;;25.92;12.15;;;7.40;99.90;;;;;;6249730;22;20162;-79
2023/03/20 05:06:31;;;;;;;28.13;11.20;;;7.40;99.90;;;;;;6249822;22;20094;-79
2023/03/20 05:08:58;;;;;;;24.27;11.57;;;7.40;99.90;;;;;;6249777;22;20046;-79
2023/03/20 05:11:24;;;;;;;31.02;12.63;;;7.30;99.90;;;;;;6249777;22;20016;-79
2023/03/20 05:13:50;;;;;;;34.47;14.27;;;7.30;99.90;;;;;;6277133;22;20095;-79
2023/03/20 05:16:16;;;;;;;34.25;14.77;;;7.30;99.90;;;;;;6249685;22;20047;-79
2023/03/20 05:18:42;;;;;;;39.95;15.30;;;7.30;99.90;;;;;;6276756;22;20019;-79
2023/03/20 05:21:08;;;;;;;37.55;16.05;;;7.30;99.90;;;;;;6277121;22;20020;-79
2023/03/20 05:23:34;;;;;;;32.20;15.13;;;7.30;99.90;;;;;;6249635;22;20015;-79
2023/03/20 05:25:59;;;;;;;38.45;17.20;;;7.30;99.90;;;;;;6249754;22;20019;-79
2023/03/20 05:28:26;;;;;;;35.88;15.75;;;7.30;99.90;;;;;;6250765;22;20368;-79
2023/03/20 05:30:51;;;;;;;38.65;16.48;;;7.30;99.90;;;;;;6279099;22;20099;-79
2023/03/20 05:33:17;;;;;;;39.63;17.42;;;7.40;99.90;;;;;;6251655;22;20046;-79
2023/03/20 05:35:43;;;;;;;42.25;17.50;;;7.30;99.90;;;;;;6251558;22;20023;-79
2023/03/20 05:38:08;;;;;;;41.28;18.60;;;7.40;99.90;;;;;;6278709;22;20404;-79
2023/03/20 05:40:34;;;;;;;40.42;17.42;;;7.30;99.90;;;;;;6278572;22;20146;-79
2023/03/20 05:43:02;;;;;;;35.20;17.45;;;7.30;99.90;;;;;;6278611;22;20014;-79
2023/03/20 05:45:28;;;;;;;37.42;16.67;;;7.40;99.90;;;;;;6278834;22;20020;-79
2023/03/20 05:47:53;;;;;;;39.45;16.30;;;7.30;99.90;;;;;;6278409;22;20015;-79
2023/03/20 05:50:19;;;;;;;43.92;18.17;;;7.30;99.90;;;;;;6278835;22;20020;-79
2023/03/20 05:52:48;;;;;;;42.47;18.45;;;7.30;99.90;;;;;;6251351;22;20016;-78
2023/03/20 05:55:14;;;;;;;37.80;17.55;;;7.40;99.90;;;;;;6251197;22;20023;-79
2023/03/20 05:57:40;;;;;;;41.60;16.20;;;7.30;99.90;;;;;;6250493;22;20034;-79
2023/03/20 06:00:07;;;;;;;41.53;16.98;;;7.30;99.90;;;;;;6251312;22;20374;-79
2023/03/20 06:02:33;;;;;;;41.13;17.23;;;7.30;99.90;;;;;;6278358;22;20020;-79
2023/03/20 06:04:59;;;;;;;42.88;16.75;;;7.40;99.90;;;;;;6278269;22;20029;-79
2023/03/20 06:07:25;;;;;;;38.58;17.25;;;7.30;99.90;;;;;;6251204;22;20501;-79
2023/03/20 06:09:51;;;;;;;40.75;16.67;;;7.30;99.90;;;;;;6251230;22;20026;-79
2023/03/20 06:12:16;;;;;;;36.95;17.85;;;7.40;99.90;;;;;;6278634;22;20030;-79
2023/03/20 06:14:42;;;;;;;40.25;18.50;;;7.30;99.90;;;;;;6251190;22;20097;-79
2023/03/20 06:17:08;;;;;;;38.92;17.45;;;7.30;99.90;;;;;;6278529;22;20331;-79
2023/03/20 06:19:34;;;;;;;39.63;16.73;;;7.30;99.90;;;;;;6251029;22;20047;-79
2023/03/20 06:22:00;;;;;;;38.22;15.45;;;7.30;99.90;;;;;;6251151;22;20016;-79
2023/03/20 06:24:25;;;;;;;47.40;18.33;;;7.30;99.90;;;;;;6251008;22;20023;-79
2023/03/20 06:26:51;;;;;;;45.08;17.25;;;7.40;99.90;;;;;;6250910;22;20020;-79
2023/03/20 06:29:17;;;;;;;37.72;16.27;;;7.40;99.90;;;;;;6278456;22;20023;-79
2023/03/20 06:31:42;;;;;;;38.67;17.42;;;7.40;99.90;;;;;;6278425;22;20012;-79
2023/03/20 06:34:08;;;;;;;47.03;17.48;;;7.40;99.90;;;;;;6250943;22;20553;-79
2023/03/20 06:36:34;;;;;;;46.83;18.95;;;7.40;99.90;;;;;;6278077;22;20343;-79
2023/03/20 06:38:59;;;;;;;43.50;18.30;;;7.40;99.90;;;;;;6277914;22;20512;-79
2023/03/20 06:41:25;;;;;;;46.00;19.73;;;7.40;99.90;;;;;;6278334;22;20054;-79
2023/03/20 06:43:51;;;;;;;42.75;18.75;;;7.40;99.90;;;;;;6250710;22;20073;-79
2023/03/20 06:46:16;;;;;;;43.85;19.50;;;7.40;99.90;;;;;;6278300;22;20042;-79
2023/03/20 06:48:42;;;;;;;44.85;18.40;;;7.50;99.90;;;;;;6250916;22;20026;-79
2023/03/20 06:51:07;;;;;;;50.58;18.50;;;7.50;99.90;;;;;;6278290;22;20405;-79
2023/03/20 06:53:33;;;;;;;41.50;17.35;;;7.50;99.90;;;;;;6250874;22;20347;-79
2023/03/20 06:55:59;;;;;;;44.00;20.33;;;7.50;99.90;;;;;;6278223;22;20012;-79
2023/03/20 06:58:25;;;;;;;49.30;20.42;;;7.50;99.90;;;;;;6278106;22;20023;-79
2023/03/20 07:00:53;;;;;;;51.40;20.52;;;7.50;99.90;;;;;;6250766;22;20090;-79
2023/03/20 07:03:19;;;;;;;45.72;20.38;;;7.50;99.90;;;;;;6250587;22;20027;-79
2023/03/20 07:05:45;;;;;;;50.80;20.00;;;7.60;99.90;;;;;;6250642;22;20457;-79
2023/03/20 07:08:10;;;;;;;45.20;20.90;;;7.60;99.90;;;;;;6278106;22;20011;-78
2023/03/20 07:10:37;;;;;;;48.50;20.05;;;7.60;99.90;;;;;;6250686;22;20439;-79
2023/03/20 07:13:03;;;;;;;51.70;20.60;;;7.60;99.90;;;;;;6278038;22;20079;-79
2023/03/20 07:15:29;;;;;;;49.72;21.75;;;7.60;99.90;;;;;;6278021;22;20027;-79
2023/03/20 07:17:54;;;;;;;51.72;20.08;;;7.60;99.90;;;;;;6250420;22;20015;-79
2023/03/20 07:20:20;;;;;;;45.92;19.90;;;7.70;99.90;;;;;;6250528;22;20015;-79
2023/03/20 07:22:47;;;;;;;43.97;18.67;;;7.70;99.90;;;;;;6277948;22;20313;-79
2023/03/20 07:25:13;;;;;;;42.08;18.35;;;7.70;99.90;;;;;;6277856;22;20025;-79
2023/03/20 07:27:39;;;;;;;48.28;19.30;;;7.70;99.90;;;;;;6250423;22;20454;-79
2023/03/20 07:30:05;;;;;;;41.70;20.75;;;7.70;99.90;;;;;;6277849;22;20069;-79
2023/03/20 07:32:31;;;;;;;48.55;20.00;;;7.70;99.90;;;;;;6277382;22;20090;-80
2023/03/20 07:34:57;;;;;;;50.08;20.52;;;7.70;99.90;;;;;;6250480;22;20051;-78
2023/03/20 07:37:23;;;;;;;50.60;19.88;;;7.70;99.90;;;;;;6250463;22;20097;-79
2023/03/20 07:39:49;;;;;;;49.08;19.83;;;7.70;99.90;;;;;;6277466;22;20083;-79
2023/03/20 07:42:15;;;;;;;47.15;20.90;;;7.80;99.90;;;;;;6277185;22;20491;-79
2023/03/20 07:44:44;;;;;;;45.28;18.58;;;7.80;99.90;;;;;;6249237;22;20028;-79
2023/03/20 07:47:12;;;;;;;43.53;18.55;;;7.90;99.90;;;;;;6276991;22;20324;-79
2023/03/20 07:49:38;;;;;;;43.22;19.90;;;7.90;99.90;;;;;;6249892;22;20046;-79
2023/03/20 07:52:04;;;;;;;42.20;19.08;;;7.90;99.90;;;;;;6249894;22;20015;-79
2023/03/20 07:54:29;;;;;;;43.80;19.02;;;7.90;99.90;;;;;;6277085;22;20030;-79
2023/03/20 07:56:55;;;;;;;42.80;19.73;;;7.90;99.90;;;;;;6277102;22;20034;-79
2023/03/20 07:59:21;;;;;;;41.88;18.95;;;7.90;99.90;;;;;;6277329;22;20141;-77
2023/03/20 08:01:46;;;;;;;42.75;19.65;;;7.90;99.90;;;;;;6277269;22;20305;-78
2023/03/20 08:04:12;;;;;;;47.10;20.77;;;7.90;99.90;;;;;;6249812;22;20390;-80
2023/03/20 08:06:38;;;;;;;45.40;20.15;;;7.90;99.90;;;;;;6249902;22;20452;-80
2023/03/20 08:09:05;;;;;;;41.63;20.13;;;8.00;99.90;;;;;;6277135;22;20016;-82
2023/03/20 08:11:32;;;;;;;41.42;19.98;;;7.90;99.90;;;;;;6277400;22;20011;-83
2023/03/20 08:13:57;;;;;;;45.83;20.75;;;7.90;99.90;;;;;;6249874;22;20016;-81
2023/03/20 08:16:24;;;;;;;44.20;19.80;;;8.00;99.90;;;;;;6277123;22;20041;-82
2023/03/20 08:18:51;;;;;;;37.50;19.13;;;8.00;99.90;;;;;;6249860;22;20087;-79
2023/03/20 08:21:17;;;;;;;39.08;19.23;;;8.00;99.90;;;;;;6249792;22;20085;-79
2023/03/20 08:23:43;;;;;;;45.63;19.33;;;7.90;99.90;;;;;;6249618;22;20378;-79
2023/03/20 08:26:08;;;;;;;39.67;19.92;;;8.00;99.90;;;;;;6249755;22;20455;-79
2023/03/20 08:28:34;;;;;;;42.15;20.50;;;8.00;99.90;;;;;;6249816;22;20016;-82
2023/03/20 08:31:00;;;;;;;42.42;20.90;;;8.00;99.90;;;;;;6249407;22;20020;-83
2023/03/20 08:33:26;;;;;;;38.88;19.27;;;8.10;99.90;;;;;;6249518;22;20343;-82
2023/03/20 08:35:56;;;;;;;45.67;20.73;;;8.10;99.90;;;;;;6277054;22;20018;-82
2023/03/20 08:38:22;;;;;;;43.90;20.10;;;8.20;99.90;;;;;;6249588;22;20028;-82
2023/03/20 08:40:47;;;;;;;33.70;17.95;;;8.10;99.90;;;;;;6276677;22;20078;-82
2023/03/20 08:43:13;;;;;;;45.60;21.38;;;8.20;99.90;;;;;;6276434;22;20022;-82
2023/03/20 08:45:38;;;;;;;41.53;18.50;;;8.20;99.90;;;;;;6249833;22;20058;-82
2023/03/20 08:48:04;;;;;;;36.88;20.02;;;8.20;99.90;;;;;;6249545;22;20015;-83
2023/03/20 08:50:30;;;;;;;40.80;18.02;;;8.20;99.90;;;;;;6249843;22;20027;-82
2023/03/20 08:52:56;;;;;;;41.97;18.45;;;8.20;99.90;;;;;;6276601;22;20059;-83
2023/03/20 08:55:21;;;;;;;41.55;20.65;;;8.20;99.90;;;;;;6276673;22;20095;-83
2023/03/20 08:57:47;;;;;;;40.75;18.52;;;8.30;99.90;;;;;;6276454;22;20058;-83
2023/03/20 09:00:14;;;;;;;35.97;17.23;;;8.40;99.90;;;;;;6249503;22;20450;-83
2023/03/20 09:02:43;;;;;;;36.05;16.23;;;8.40;99.90;;;;;;6277546;22;20011;-83
2023/03/20 09:05:10;;;;;;;42.45;18.00;;;8.40;99.90;;;;;;6278749;22;20027;-81
2023/03/20 09:07:36;;;;;;;37.38;18.33;;;8.50;99.90;;;;;;6251649;22;20016;-81
2023/03/20 09:10:03;;;;;;;34.85;16.25;;;8.60;99.90;;;;;;6251513;22;20014;-82
2023/03/20 09:12:30;;;;;;;39.78;16.98;;;8.60;99.90;;;;;;6251657;22;20043;-81
2023/03/20 09:14:56;;;;;;;33.25;15.98;;;8.70;99.90;;;;;;6251364;22;20020;-82
2023/03/20 09:17:22;;;;;;;36.63;16.40;;;8.80;99.90;;;;;;6251514;22;20015;-82
2023/03/20 09:19:47;;;;;;;30.02;14.80;;;8.90;99.90;;;;;;6251403;22;20019;-79
2023/03/20 09:22:16;;;;;;;31.58;15.65;;;9.00;99.90;;;;;;6251539;22;20019;-80
2023/03/20 09:24:43;;;;;;;33.97;14.88;;;9.10;99.90;;;;;;6278647;22;20022;-79
2023/03/20 09:27:09;;;;;;;38.75;16.65;;;9.20;99.90;;;;;;6278593;22;20035;-79
2023/03/20 09:29:35;;;;;;;33.45;15.68;;;9.30;99.90;;;;;;6251239;22;20015;-82
2023/03/20 09:32:01;;;;;;;33.00;14.93;;;9.40;99.90;;;;;;6251487;22;20016;-82
2023/03/20 09:34:26;;;;;;;36.15;15.77;;;9.50;99.90;;;;;;6278737;22;20012;-80
2023/03/20 09:36:52;;;;;;;40.70;16.27;;;9.60;99.90;;;;;;6278716;22;20323;-80
2023/03/20 09:39:18;;;;;;;33.60;13.70;;;9.80;99.90;;;;;;6278540;22;20020;-80
2023/03/20 09:41:49;;;;;;;27.98;13.07;;;9.90;99.90;;;;;;6251128;22;20015;-80
2023/03/20 09:44:49;;;;;;;35.38;14.98;;;10.10;99.90;;;;;;6278270;22;20443;-81
2023/03/20 09:47:46;;;;;;;28.25;13.45;;;10.10;99.90;;;;;;6257004;22;20462;-80
2023/03/20 09:50:59;;;;;;;37.15;15.18;;;10.20;99.90;;;;;;6209543;22;20312;-80
2023/03/20 09:53:39;;;;;;;28.10;12.82;;;10.30;99.90;;;;;;6154955;23;20024;-82
2023/03/20 09:56:20;;;;;;;30.98;14.55;;;10.30;99.90;;;;;;6130205;23;20354;-81
2023/03/20 09:58:55;;;;;;;31.45;15.40;;;10.30;99.90;;;;;;6210768;22;20015;-80
2023/03/20 10:01:26;;;;;;;31.42;14.63;;;10.40;99.90;;;;;;6278101;22;20485;-80
2023/03/20 10:04:03;;;;;;;28.75;14.93;;;10.50;99.90;;;;;;6251149;22;20016;-80
2023/03/20 10:06:29;;;;;;;30.38;13.90;;;10.50;99.90;;;;;;6251080;22;20451;-82
2023/03/20 10:08:55;;;;;;;30.48;14.60;;;10.60;99.90;;;;;;6278440;22;20012;-81
2023/03/20 10:11:35;;;;;;;28.02;15.05;;;10.60;99.90;;;;;;6250855;22;20020;-81
2023/03/20 10:14:17;;;;;;;27.75;13.55;;;10.60;99.90;;;;;;6250832;22;20050;-80
2023/03/20 10:17:17;;;;;;;25.33;12.60;;;10.70;99.90;;;;;;6250938;22;20027;-81
2023/03/20 10:20:13;;;;;;;28.60;13.63;;;10.70;99.90;;;;;;6278384;22;20311;-80
2023/03/20 10:22:46;;;;;;;30.55;13.50;;;10.60;99.90;;;;;;6250787;22;20463;-80
2023/03/20 10:25:23;;;;;;;29.20;14.13;;;10.80;99.90;;;;;;6278331;22;20086;-81
2023/03/20 10:27:55;;;;;;;26.90;14.50;;;10.80;99.90;;;;;;6250809;22;20020;-81
2023/03/20 10:30:25;;;;;;;30.33;14.93;;;10.80;99.90;;;;;;6278329;22;20068;-80
2023/03/20 10:33:06;;;;;;;28.50;15.10;;;10.80;99.90;;;;;;6250777;22;20012;-80
2023/03/20 10:35:40;;;;;;;35.53;16.45;;;10.70;99.90;;;;;;6250992;22;20566;-80
2023/03/20 10:38:44;;;;;;;33.28;16.42;;;10.70;99.90;;;;;;6277819;22;20020;-80
2023/03/20 10:41:17;;;;;;;29.98;14.88;;;10.60;99.90;;;;;;6250647;22;20044;-81
2023/03/20 10:43:46;;;;;;;35.17;15.13;;;10.60;99.90;;;;;;6250544;22;20023;-81
2023/03/20 10:46:26;;;;;;;30.17;15.90;;;10.50;99.90;;;;;;6250721;22;20028;-81
2023/03/20 10:49:14;;;;;;;32.40;14.55;;;10.50;99.90;;;;;;6250799;22;20047;-80
2023/03/20 10:51:50;;;;;;;30.65;15.35;;;10.40;99.90;;;;;;6250619;22;20043;-80
2023/03/20 10:54:44;;;;;;;41.70;15.07;;;10.40;99.90;;;;;;6250704;22;20012;-80
2023/03/20 10:57:30;;;;;;;27.60;13.40;;;10.40;99.90;;;;;;6277930;22;20023;-79
2023/03/20 10:59:57;;;;;;;32.38;14.63;;;10.30;99.90;;;;;;6250448;22;20348;-79
2023/03/20 11:02:29;;;;;;;35.33;14.88;;;10.40;99.90;;;;;;6250348;22;20336;-79
2023/03/20 11:04:55;;;;;;;25.08;14.02;;;10.40;99.90;;;;;;6250407;22;20047;-79
2023/03/20 11:07:31;;;;;;;28.38;14.57;;;10.30;99.90;;;;;;6250189;22;20018;-79
2023/03/20 11:10:03;;;;;;;32.00;13.85;;;10.20;99.90;;;;;;6250430;22;20022;-79
2023/03/20 11:12:32;;;;;;;27.90;14.20;;;10.00;99.90;;;;;;6250412;22;20073;-79
2023/03/20 11:15:13;;;;;;;34.03;14.27;;;10.10;99.90;;;;;;6250293;22;20016;-79
2023/03/20 11:17:38;;;;;;;29.67;11.45;;;10.10;99.90;;;;;;6250237;22;20015;-81
2023/03/20 11:20:05;;;;;;;26.38;11.82;;;10.10;99.90;;;;;;6277308;22;20023;-78
2023/03/20 11:22:31;;;;;;;21.88;9.38;;;10.10;99.90;;;;;;6250248;22;20015;-79
2023/03/20 11:25:00;;;;;;;28.58;8.43;;;10.00;99.90;;;;;;6249629;22;20153;-79
2023/03/20 11:27:32;;;;;;;19.23;7.97;;;10.00;99.90;;;;;;6277766;22;20074;-80
2023/03/20 11:30:01;;;;;;;23.50;8.45;;;9.90;99.90;;;;;;6277612;22;20094;-79
2023/03/20 11:32:40;;;;;;;23.23;8.50;;;9.90;99.90;;;;;;6250132;22;20043;-79
2023/03/20 11:35:24;;;;;;;21.63;9.18;;;10.00;99.90;;;;;;6250029;22;20086;-80
2023/03/20 11:37:52;;;;;;;18.45;7.72;;;9.90;99.90;;;;;;6250010;22;20026;-79
2023/03/20 11:40:22;;;;;;;26.05;9.60;;;9.70;99.90;;;;;;6250274;22;20459;-79
2023/03/20 11:42:55;;;;;;;21.85;9.23;;;9.70;99.90;;;;;;6249704;22;20019;-79
2023/03/20 11:45:27;;;;;;;24.25;10.40;;;9.50;99.90;;;;;;6249844;22;20035;-81
2023/03/20 11:47:56;;;;;;;20.40;9.95;;;9.50;99.90;;;;;;6277427;22;20095;-82
2023/03/20 11:50:34;;;;;;;28.42;12.45;;;9.40;99.90;;;;;;6249961;22;20024;-80
2023/03/20 11:53:02;;;;;;;28.48;12.30;;;9.30;99.90;;;;;;6249903;22;20090;-80
2023/03/20 11:55:35;;;;;;;26.52;11.65;;;9.40;99.90;;;;;;6276935;22;20450;-81
2023/03/20 11:58:03;;;;;;;24.67;12.80;;;9.30;99.90;;;;;;6277384;22;20012;-81
2023/03/20 12:00:41;;;;;;;23.85;11.75;;;9.20;99.90;;;;;;6277266;22;20043;-85
2023/03/20 12:03:45;;;;;;;28.77;13.75;;;9.20;99.90;;;;;;6249813;22;20016;-79
2023/03/20 12:06:18;;;;;;;28.40;13.75;;;9.20;99.90;;;;;;6277234;22;20015;-79
2023/03/20 12:08:53;;;;;;;24.95;12.90;;;9.20;99.90;;;;;;6276925;22;20015;-79
2023/03/20 12:11:42;;;;;;;26.23;13.55;;;9.20;99.90;;;;;;6249915;22;20091;-80
2023/03/20 12:14:40;;;;;;;31.25;14.88;;;9.30;99.90;;;;;;6276722;22;20398;-80
2023/03/20 12:17:24;;;;;;;28.80;14.80;;;9.20;99.90;;;;;;6249750;22;20086;-83
2023/03/20 12:19:54;;;;;;;31.13;15.15;;;9.10;99.90;;;;;;6249797;22;20015;-81
2023/03/20 12:22:26;;;;;;;27.02;15.10;;;9.10;99.90;;;;;;6249595;22;20048;-80
2023/03/20 12:25:06;;;;;;;31.38;15.40;;;9.10;99.90;;;;;;6276657;22;20012;-79
2023/03/20 12:27:36;;;;;;;27.77;16.55;;;9.00;99.90;;;;;;6249759;22;20382;-80
2023/03/20 12:30:11;;;;;;;36.25;16.80;;;9.00;99.90;;;;;;6249766;22;20022;-81
2023/03/20 12:33:12;;;;;;;34.15;16.95;;;9.00;99.90;;;;;;6249544;22;20027;-81
2023/03/20 12:35:43;;;;;;;29.45;16.38;;;9.00;99.90;;;;;;6209376;22;20058;-81
2023/03/20 12:38:28;;;;;;;29.55;15.82;;;8.80;99.90;;;;;;6249566;22;20019;-81
2023/03/20 12:41:25;;;;;;;26.45;15.15;;;8.80;99.90;;;;;;6249626;22;20046;-85
2023/03/20 12:44:21;;;;;;;25.60;15.18;;;8.70;99.90;;;;;;6207801;22;20169;-81
2023/03/20 12:47:22;;;;;;;28.27;15.70;;;8.80;99.90;;;;;;6277053;22;20024;-83
2023/03/20 12:49:53;;;;;;;28.58;15.65;;;8.70;99.90;;;;;;6249675;22;20065;-84
2023/03/20 12:52:34;;;;;;;25.17;15.00;;;8.70;99.90;;;;;;6249548;22;20020;-82
2023/03/20 12:55:12;;;;;;;27.15;16.05;;;8.60;99.90;;;;;;6249620;22;20020;-81
2023/03/20 12:58:24;;;;;;;31.88;16.23;;;8.70;99.90;;;;;;6249494;22;20106;-81
2023/03/20 13:01:07;;;;;;;24.55;15.85;;;8.60;99.90;;;;;;6265288;22;20016;-81
2023/03/20 13:03:36;;;;;;;26.63;14.90;;;8.60;99.90;;;;;;6249688;22;20018;-81